Time;durP1;ratioP1;P1;durP2;ratioP2;P2;SDS_P1;SDS_P2;PMS_P1;PMS_P2;Temp;Humidity;BMP_temperature;BMP_pressure;BME280_temperature;BME280_humidity;BME280_pressure;Samples;Min_cycle;Max_cycle;Signal;HPM_P1;HPM_P2
2022/07/13 14:20:00;;;;;;;;;;;;;;;24.81;47.71;102214.94;6255081;22;19974;-86
2022/07/13 21:31:14;;;;;;;;;;;;;;;23.99;42.11;102303.00;6255502;23;19922;-85
2022/07/13 21:33:49;;;;;;;;;;;;;;;23.98;42.48;102297.78;6220533;23;19920;-85
2022/07/13 21:36:38;;;;;;;;;;;;;;;24.01;42.07;102308.25;6222667;23;19911;-84
2022/07/13 21:39:03;;;;;;;;;;;;;;;24.01;41.83;102311.75;6168808;23;19908;-80
2022/07/13 21:41:37;;;;;;;;;;;;;;;23.97;41.83;102307.41;6182816;23;19919;-81
2022/07/13 21:44:25;;;;;;;;;;;;;;;23.93;41.75;102299.59;6155381;23;19916;-81
2022/07/13 21:46:50;;;;;;;;;;;;;;;23.93;41.83;102303.13;6174527;23;19909;-81
2022/07/13 21:49:25;;;;;;;;;;;;;;;23.92;41.76;102296.09;6149818;23;20033;-82
2022/07/13 21:54:58;;;;;;;;;;;;;;;23.89;41.89;102292.63;6174764;23;19915;-82
2022/07/13 21:57:42;;;;;;;;;;;;;;;23.91;41.69;102299.63;6174310;23;19909;-81
2022/07/13 22:00:14;;;;;;;;;;;;;;;23.86;41.54;102298.78;6174471;23;19915;-82
2022/07/13 22:02:47;;;;;;;;;;;;;;;23.87;41.55;102290.03;6143747;23;19919;-81
2022/07/13 22:05:14;;;;;;;;;;;;;;;23.82;41.93;102283.94;6172973;23;19916;-82
2022/07/13 22:07:55;;;;;;;;;;;;;;;23.84;41.59;102279.53;6148356;23;19908;-82
2022/07/13 22:10:39;;;;;;;;;;;;;;;23.84;42.00;102281.31;6213075;23;19914;-82
2022/07/13 22:13:24;;;;;;;;;;;;;;;23.81;42.04;102282.22;6241383;23;19915;-82
2022/07/13 22:16:10;;;;;;;;;;;;;;;23.83;42.06;102288.34;6243370;23;19891;-82
2022/07/13 22:22:00;;;;;;;;;;;;;;;23.83;41.96;102296.22;6240009;23;19959;-82
2022/07/13 22:24:48;;;;;;;;;;;;;;;23.81;41.87;102285.72;6237537;23;19908;-82
2022/07/13 22:27:32;;;;;;;;;;;;;;;23.82;41.74;102297.09;6160199;23;19915;-82
2022/07/13 22:30:17;;;;;;;;;;;;;;;23.83;41.83;102295.38;6206259;23;19908;-82
2022/07/13 22:33:01;;;;;;;;;;;;;;;23.79;41.81;102311.16;6202423;23;19923;-81
2022/07/13 22:35:44;;;;;;;;;;;;;;;23.80;41.93;102309.38;6227236;23;19930;-81
2022/07/13 22:38:28;;;;;;;;;;;;;;;23.77;41.83;102299.78;6199693;23;19935;-81
2022/07/13 22:41:13;;;;;;;;;;;;;;;23.77;41.95;102309.44;6200302;23;19992;-81
2022/07/13 22:43:57;;;;;;;;;;;;;;;23.76;41.83;102299.84;6198182;23;19991;-81
2022/07/13 22:46:41;;;;;;;;;;;;;;;23.75;41.97;102290.16;6197340;23;19908;-81
2022/07/13 22:49:24;;;;;;;;;;;;;;;23.73;41.98;102292.78;6196839;23;19915;-81
2022/07/13 22:52:09;;;;;;;;;;;;;;;23.73;42.15;102287.53;6195908;23;19951;-81
2022/07/13 22:54:53;;;;;;;;;;;;;;;23.68;42.01;102284.09;6197255;23;20272;-81
2022/07/13 22:57:37;;;;;;;;;;;;;;;23.73;41.84;102281.41;6196422;23;20241;-81
2022/07/13 23:00:22;;;;;;;;;;;;;;;23.75;42.07;102288.41;6195445;23;20321;-81
2022/07/13 23:03:06;;;;;;;;;;;;;;;23.71;42.06;102278.78;6197831;23;19915;-81
2022/07/13 23:05:50;;;;;;;;;;;;;;;23.72;42.09;102263.91;6196632;23;19907;-81
2022/07/13 23:08:34;;;;;;;;;;;;;;;23.67;41.84;102271.88;6196889;23;19908;-81
2022/07/13 23:11:18;;;;;;;;;;;;;;;23.66;42.15;102270.09;6195646;23;20002;-81
2022/07/13 23:14:02;;;;;;;;;;;;;;;23.69;42.18;102277.09;6195809;23;19918;-81
2022/07/13 23:16:46;;;;;;;;;;;;;;;23.70;41.99;102281.47;6222990;23;20213;-81
2022/07/13 23:19:30;;;;;;;;;;;;;;;23.69;42.14;102285.88;6222871;23;19908;-81
2022/07/13 23:22:14;;;;;;;;;;;;;;;23.69;42.24;102277.09;6196612;23;19915;-81
2022/07/13 23:24:58;;;;;;;;;;;;;;;23.66;42.03;102278.00;6197475;23;19983;-81
2022/07/13 23:27:42;;;;;;;;;;;;;;;23.68;42.18;102278.84;6224084;23;19934;-81
2022/07/13 23:30:23;;;;;;;;;;;;;;;23.67;42.02;102285.00;6199341;23;19908;-81
2022/07/13 23:32:49;;;;;;;;;;;;;;;23.68;42.09;102291.13;6198873;23;19916;-81
2022/07/13 23:35:15;;;;;;;;;;;;;;;23.67;41.87;102278.84;6173936;23;19947;-81
2022/07/13 23:37:42;;;;;;;;;;;;;;;23.68;42.03;102288.50;6176250;23;20175;-81
2022/07/13 23:40:09;;;;;;;;;;;;;;;23.65;42.06;102281.53;6185581;23;19976;-81
2022/07/13 23:42:34;;;;;;;;;;;;;;;23.62;42.03;102279.78;6212470;23;20399;-81
2022/07/13 23:44:59;;;;;;;;;;;;;;;23.62;42.21;102271.91;6215269;23;19908;-81
2022/07/13 23:47:24;;;;;;;;;;;;;;;23.64;42.04;102265.78;6216252;23;19899;-81
2022/07/13 23:49:50;;;;;;;;;;;;;;;23.62;42.26;102261.38;6210462;23;19910;-81
2022/07/13 23:52:15;;;;;;;;;;;;;;;23.62;42.01;102260.53;6217419;23;19946;-81
2022/07/13 23:54:41;;;;;;;;;;;;;;;23.62;41.84;102260.53;6204950;23;20248;-81
2022/07/13 23:57:06;;;;;;;;;;;;;;;23.62;41.83;102269.28;6177362;23;19912;-82
2022/07/13 23:59:31;;;;;;;;;;;;;;;23.63;41.91;102264.91;6201888;23;19935;-81
